<?xml version="1.0" encoding="UTF-8" standalone="no" ?>
<gpx xmlns="http://www.topografix.com/GPX/1/1" xmlns:xsi="http://www.w3.org/2001/XMLSchema-instance" xsi:schemaLocation="http://www.topografix.com/GPX/1/1 http://www.topografix.com/GPX/1/1/gpx.xsd" version="1.1" creator="VisuGPX - https://www.visugpx.com">
  <metadata>
    <name>DH Plateau des Petites Roches</name>
  </metadata>
  <wpt lat="45.31652" lon="5.89215">
    <ele>909.4</ele>
  </wpt>
  <wpt lat="45.31652" lon="5.89215">
    <ele>909.4</ele>
  </wpt>
  <trk>
    <name><![CDATA[14437949-Descente Toton Ride]]></name>
    <extensions>
      <line xmlns="http://www.topografix.com/GPX/gpx_style/0/2">
        <color>FF00FF</color>
        <width>4</width>
      </line>
    </extensions>
    <trkseg>
      <trkpt lat="45.31361" lon="5.8785">
        <ele>1158</ele>
        <time>2022-03-21T07:53:44Z</time>
      </trkpt>
      <trkpt lat="45.31357" lon="5.87887">
        <ele>1150</ele>
        <time>2022-03-21T07:53:50Z</time>
      </trkpt>
      <trkpt lat="45.31354" lon="5.87925">
        <ele>1142</ele>
        <time>2022-03-21T07:53:56Z</time>
      </trkpt>
      <trkpt lat="45.31356" lon="5.87949">
        <ele>1135</ele>
        <time>2022-03-21T07:54:00Z</time>
      </trkpt>
      <trkpt lat="45.31375" lon="5.87957">
        <ele>1131</ele>
        <time>2022-03-21T07:54:05Z</time>
      </trkpt>
      <trkpt lat="45.31391" lon="5.87964">
        <ele>1127</ele>
        <time>2022-03-21T07:54:09Z</time>
      </trkpt>
      <trkpt lat="45.31405" lon="5.87975">
        <ele>1122</ele>
        <time>2022-03-21T07:54:13Z</time>
      </trkpt>
      <trkpt lat="45.31424" lon="5.87998">
        <ele>1111</ele>
        <time>2022-03-21T07:54:18Z</time>
      </trkpt>
      <trkpt lat="45.31424" lon="5.88019">
        <ele>1105</ele>
        <time>2022-03-21T07:54:22Z</time>
      </trkpt>
      <trkpt lat="45.31425" lon="5.88047">
        <ele>1097</ele>
        <time>2022-03-21T07:54:27Z</time>
      </trkpt>
      <trkpt lat="45.3143" lon="5.88078">
        <ele>1088</ele>
        <time>2022-03-21T07:54:32Z</time>
      </trkpt>
      <trkpt lat="45.31431" lon="5.88107">
        <ele>1080</ele>
        <time>2022-03-21T07:54:37Z</time>
      </trkpt>
      <trkpt lat="45.31444" lon="5.88156">
        <ele>1064</ele>
        <time>2022-03-21T07:54:45Z</time>
      </trkpt>
      <trkpt lat="45.31456" lon="5.88208">
        <ele>1051</ele>
        <time>2022-03-21T07:54:54Z</time>
      </trkpt>
      <trkpt lat="45.31461" lon="5.88254">
        <ele>1040</ele>
        <time>2022-03-21T07:55:02Z</time>
      </trkpt>
      <trkpt lat="45.31468" lon="5.88292">
        <ele>1029</ele>
        <time>2022-03-21T07:55:08Z</time>
      </trkpt>
      <trkpt lat="45.31472" lon="5.88325">
        <ele>1019</ele>
        <time>2022-03-21T07:55:14Z</time>
      </trkpt>
      <trkpt lat="45.31465" lon="5.8835">
        <ele>1012</ele>
        <time>2022-03-21T07:55:18Z</time>
      </trkpt>
      <trkpt lat="45.31456" lon="5.88377">
        <ele>1005</ele>
        <time>2022-03-21T07:55:23Z</time>
      </trkpt>
      <trkpt lat="45.31446" lon="5.88394">
        <ele>1001</ele>
        <time>2022-03-21T07:55:27Z</time>
      </trkpt>
      <trkpt lat="45.31435" lon="5.88424">
        <ele>994</ele>
        <time>2022-03-21T07:55:32Z</time>
      </trkpt>
      <trkpt lat="45.31427" lon="5.88447">
        <ele>990</ele>
        <time>2022-03-21T07:55:36Z</time>
      </trkpt>
      <trkpt lat="45.31428" lon="5.88485">
        <ele>984</ele>
        <time>2022-03-21T07:55:43Z</time>
      </trkpt>
      <trkpt lat="45.31427" lon="5.88519">
        <ele>979</ele>
        <time>2022-03-21T07:55:48Z</time>
      </trkpt>
      <trkpt lat="45.31427" lon="5.88553">
        <ele>975</ele>
        <time>2022-03-21T07:55:54Z</time>
      </trkpt>
      <trkpt lat="45.31434" lon="5.88587">
        <ele>970</ele>
        <time>2022-03-21T07:56:00Z</time>
      </trkpt>
    </trkseg>
  </trk>
</gpx>